createdAt,value
2018-01-04T00:00:12.612Z,1007.39
2018-01-04T00:01:13.021Z,1007.36
2018-01-04T00:02:12.651Z,1007.38
2018-01-04T00:03:13.370Z,1007.43
2018-01-04T00:04:13.922Z,1007.41
2018-01-04T00:05:14.701Z,1007.37
2018-01-04T00:06:13.017Z,1007.4
2018-01-04T00:07:12.587Z,1007.44
2018-01-04T00:08:13.363Z,1007.52
2018-01-04T00:09:12.753Z,1007.48
2018-01-04T00:10:13.282Z,1007.57
2018-01-04T00:11:12.873Z,1007.49
2018-01-04T00:12:13.196Z,1007.43
2018-01-04T00:13:12.933Z,1007.44
2018-01-04T00:14:13.508Z,1007.53
2018-01-04T00:15:13.614Z,1007.42
2018-01-04T00:16:13.322Z,1007.54
2018-01-04T00:17:12.932Z,1007.43
2018-01-04T00:18:12.891Z,1007.47
2018-01-04T00:19:13.772Z,1007.49
2018-01-04T00:20:13.562Z,1007.54
2018-01-04T00:21:12.669Z,1007.48
2018-01-04T00:22:13.008Z,1007.5
2018-01-04T00:23:12.889Z,1007.51
2018-01-04T00:24:13.677Z,1007.48
2018-01-04T00:25:13.378Z,1007.48
2018-01-04T00:26:13.047Z,1007.5
2018-01-04T00:27:12.597Z,1007.47
2018-01-04T00:28:13.105Z,1007.44
2018-01-04T00:29:13.584Z,1007.39
2018-01-04T00:30:13.516Z,1007.42
2018-01-04T00:31:13.459Z,1007.33
2018-01-04T00:32:13.742Z,1007.43
2018-01-04T00:33:13.162Z,1007.48
2018-01-04T00:34:12.892Z,1007.39
2018-01-04T00:35:13.471Z,1007.4
2018-01-04T00:36:13.249Z,1007.38
2018-01-04T00:37:12.950Z,1007.43
2018-01-04T00:38:13.065Z,1007.31
2018-01-04T00:39:13.258Z,1007.38
2018-01-04T00:40:12.878Z,1007.41
2018-01-04T00:41:13.373Z,1007.38
2018-01-04T00:42:13.147Z,1007.4
2018-01-04T00:43:13.091Z,1007.33
2018-01-04T00:44:12.705Z,1007.4
2018-01-04T00:45:13.310Z,1007.4
2018-01-04T00:46:12.666Z,1007.4
2018-01-04T00:47:13.132Z,1007.35
2018-01-04T00:48:13.030Z,1007.39
2018-01-04T00:49:13.261Z,1007.43
2018-01-04T00:50:13.023Z,1007.42
2018-01-04T00:51:13.690Z,1007.39
2018-01-04T00:52:13.199Z,1007.39
2018-01-04T00:53:12.795Z,1007.35
2018-01-04T00:54:12.504Z,1007.44
2018-01-04T00:55:12.779Z,1007.44
2018-01-04T00:56:13.287Z,1007.46
2018-01-04T00:57:12.663Z,1007.42
2018-01-04T00:58:13.323Z,1007.46
2018-01-04T00:59:12.870Z,1007.37
2018-01-04T01:00:13.089Z,1007.42
2018-01-04T01:01:12.355Z,1007.43
2018-01-04T01:02:12.839Z,1007.45
2018-01-04T01:03:12.145Z,1007.44
2018-01-04T01:04:13.280Z,1007.51
2018-01-04T01:05:13.260Z,1007.41
2018-01-04T01:06:13.364Z,1007.46
2018-01-04T01:07:12.822Z,1007.58
2018-01-04T01:08:13.189Z,1007.57
2018-01-04T01:09:12.791Z,1007.59
2018-01-04T01:10:13.193Z,1007.63
2018-01-04T01:11:12.844Z,1007.58
2018-01-04T01:12:12.574Z,1007.49
2018-01-04T01:13:12.966Z,1007.46
2018-01-04T01:14:12.487Z,1007.43
2018-01-04T01:15:13.345Z,1007.52
2018-01-04T01:16:13.229Z,1007.51
2018-01-04T01:17:12.681Z,1007.51
2018-01-04T01:18:12.966Z,1007.49
2018-01-04T01:19:13.076Z,1007.52
2018-01-04T01:20:12.659Z,1007.51
2018-01-04T01:21:12.346Z,1007.61
2018-01-04T01:22:13.171Z,1007.65
2018-01-04T01:23:12.626Z,1007.64
2018-01-04T01:24:13.051Z,1007.62
2018-01-04T01:25:12.768Z,1007.54
2018-01-04T01:26:12.380Z,1007.54
2018-01-04T01:27:13.180Z,1007.58
2018-01-04T01:28:12.864Z,1007.54
2018-01-04T01:29:12.497Z,1007.56
2018-01-04T01:30:13.229Z,1007.57
2018-01-04T01:31:12.963Z,1007.64
2018-01-04T01:32:13.365Z,1007.62
2018-01-04T01:33:13.709Z,1007.62
2018-01-04T01:34:13.015Z,1007.62
2018-01-04T01:35:13.744Z,1007.6
2018-01-04T01:36:13.189Z,1007.61
2018-01-04T01:37:13.338Z,1007.56
2018-01-04T01:38:13.166Z,1007.53
2018-01-04T01:39:13.952Z,1007.42
2018-01-04T01:40:13.692Z,1007.39
2018-01-04T01:41:13.069Z,1007.36
2018-01-04T01:42:14.221Z,1007.35
2018-01-04T01:43:14.052Z,1007.32
2018-01-04T01:44:13.604Z,1007.34
2018-01-04T01:45:14.276Z,1007.29
2018-01-04T01:46:12.883Z,1007.25
2018-01-04T01:47:13.289Z,1007.32
2018-01-04T01:48:13.189Z,1007.27
2018-01-04T01:49:14.015Z,1007.23
2018-01-04T01:50:13.248Z,1007.21
2018-01-04T01:51:13.828Z,1007.14
2018-01-04T01:52:13.425Z,1007.11
2018-01-04T01:53:13.080Z,1007.13
2018-01-04T01:54:13.090Z,1007.13
2018-01-04T01:55:13.441Z,1007.11
2018-01-04T01:56:13.244Z,1007.01
2018-01-04T01:57:13.837Z,1007.05
2018-01-04T01:58:13.498Z,1007.07
2018-01-04T01:59:13.230Z,1007.12
2018-01-04T02:00:13.958Z,1007.11
2018-01-04T02:01:13.780Z,1007.11
2018-01-04T02:02:13.040Z,1007.03
2018-01-04T02:03:13.326Z,1007.06
2018-01-04T02:04:13.593Z,1007.01
2018-01-04T02:05:12.793Z,1007.04
2018-01-04T02:06:13.222Z,1007.01
2018-01-04T02:07:13.434Z,1006.99
2018-01-04T02:08:12.876Z,1006.98
2018-01-04T02:09:13.670Z,1006.93
2018-01-04T02:10:14.002Z,1006.98
2018-01-04T02:11:13.622Z,1007
2018-01-04T02:12:13.310Z,1007.06
2018-01-04T02:13:12.843Z,1007.01
2018-01-04T02:14:13.427Z,1007.08
2018-01-04T02:15:12.911Z,1007.05
2018-01-04T02:16:13.381Z,1007.04
2018-01-04T02:17:13.377Z,1007.12
2018-01-04T02:18:13.161Z,1007.08
2018-01-04T02:19:13.540Z,1007.1
2018-01-04T02:20:14.009Z,1007.03
2018-01-04T02:21:12.740Z,1006.96
2018-01-04T02:22:13.292Z,1006.94
2018-01-04T02:23:12.694Z,1006.93
2018-01-04T02:24:13.547Z,1006.85
2018-01-04T02:25:13.174Z,1006.83
2018-01-04T02:26:13.724Z,1006.84
2018-01-04T02:27:13.138Z,1006.84
2018-01-04T02:28:13.242Z,1006.79
2018-01-04T02:29:13.113Z,1006.79
2018-01-04T02:30:12.795Z,1006.81
2018-01-04T02:31:13.137Z,1006.86
2018-01-04T02:32:13.050Z,1006.84
2018-01-04T02:33:13.784Z,1006.9
2018-01-04T02:34:14.029Z,1006.85
2018-01-04T02:35:13.457Z,1006.78
2018-01-04T02:36:12.678Z,1006.79
2018-01-04T02:37:13.498Z,1006.78
2018-01-04T02:38:13.343Z,1006.78
2018-01-04T02:39:13.895Z,1006.77
2018-01-04T02:40:13.638Z,1006.82
2018-01-04T02:41:13.872Z,1006.83
2018-01-04T02:42:13.040Z,1006.86
2018-01-04T02:43:13.123Z,1006.84
2018-01-04T02:44:13.540Z,1006.8
2018-01-04T02:45:12.764Z,1006.84
2018-01-04T02:46:12.958Z,1006.78
2018-01-04T02:47:13.501Z,1006.82
2018-01-04T02:48:12.831Z,1006.77
2018-01-04T02:49:13.004Z,1006.74
2018-01-04T02:50:13.171Z,1006.77
2018-01-04T02:51:13.518Z,1006.78
2018-01-04T02:52:12.923Z,1006.79
2018-01-04T02:53:13.327Z,1006.82
2018-01-04T02:54:13.620Z,1006.84
2018-01-04T02:55:12.838Z,1006.86
2018-01-04T02:56:13.174Z,1006.87
2018-01-04T02:57:13.299Z,1006.89
2018-01-04T02:58:13.406Z,1006.89
2018-01-04T02:59:13.635Z,1006.97
2018-01-04T03:00:12.803Z,1006.9
2018-01-04T03:01:12.754Z,1006.9
2018-01-04T03:02:13.094Z,1006.83
2018-01-04T03:03:13.406Z,1006.79
2018-01-04T03:04:13.746Z,1006.76
2018-01-04T03:05:13.972Z,1006.83
2018-01-04T03:06:13.366Z,1006.83
2018-01-04T03:07:13.715Z,1006.82
2018-01-04T03:08:14.125Z,1006.8
2018-01-04T03:09:13.386Z,1006.84
2018-01-04T03:10:13.710Z,1006.82
2018-01-04T03:11:14.338Z,1006.78
2018-01-04T03:12:13.816Z,1006.8
2018-01-04T03:13:13.262Z,1006.79
2018-01-04T03:14:13.544Z,1006.79
2018-01-04T03:15:13.604Z,1006.77
2018-01-04T03:16:13.889Z,1006.82
2018-01-04T03:17:13.136Z,1006.78
2018-01-04T03:18:13.394Z,1006.77
2018-01-04T03:19:13.680Z,1006.74
2018-01-04T03:20:14.076Z,1006.78
2018-01-04T03:21:13.381Z,1006.72
2018-01-04T03:22:13.691Z,1006.67
2018-01-04T03:23:13.862Z,1006.6
2018-01-04T03:24:13.116Z,1006.59
2018-01-04T03:25:13.302Z,1006.62
2018-01-04T03:26:13.304Z,1006.66
2018-01-04T03:27:13.519Z,1006.68
2018-01-04T03:28:13.632Z,1006.61
2018-01-04T03:29:13.637Z,1006.55
2018-01-04T03:30:13.684Z,1006.49
2018-01-04T03:31:13.875Z,1006.47
2018-01-04T03:32:13.164Z,1006.46
2018-01-04T03:33:12.414Z,1006.45
2018-01-04T03:34:12.549Z,1006.45
2018-01-04T03:35:12.876Z,1006.49
2018-01-04T03:36:12.462Z,1006.48
2018-01-04T03:37:12.859Z,1006.45
2018-01-04T03:38:12.100Z,1006.44
2018-01-04T03:39:12.341Z,1006.4
2018-01-04T03:40:12.550Z,1006.45
2018-01-04T03:41:12.833Z,1006.39
2018-01-04T03:42:13.081Z,1006.39
2018-01-04T03:43:12.407Z,1006.4
2018-01-04T03:44:12.554Z,1006.39
2018-01-04T03:45:12.859Z,1006.47
2018-01-04T03:46:12.385Z,1006.45
2018-01-04T03:47:12.753Z,1006.43
2018-01-04T03:48:12.943Z,1006.43
2018-01-04T03:49:12.170Z,1006.42
2018-01-04T03:50:12.350Z,1006.37
2018-01-04T03:51:12.460Z,1006.4
2018-01-04T03:52:12.618Z,1006.39
2018-01-04T03:53:12.897Z,1006.44
2018-01-04T03:54:12.201Z,1006.43
2018-01-04T03:55:12.602Z,1006.43
2018-01-04T03:56:12.913Z,1006.45
2018-01-04T03:57:12.409Z,1006.4
2018-01-04T03:58:12.631Z,1006.46
2018-01-04T03:59:13.025Z,1006.49
2018-01-04T04:00:12.308Z,1006.43
2018-01-04T04:01:12.560Z,1006.37
2018-01-04T04:02:12.891Z,1006.42
2018-01-04T04:03:12.964Z,1006.38
2018-01-04T04:04:13.391Z,1006.42
2018-01-04T04:05:13.529Z,1006.42
2018-01-04T04:06:13.675Z,1006.51
2018-01-04T04:07:12.982Z,1006.5
2018-01-04T04:08:13.398Z,1006.57
2018-01-04T04:09:13.736Z,1006.49
2018-01-04T04:10:12.921Z,1006.48
2018-01-04T04:11:13.083Z,1006.5
2018-01-04T04:12:13.181Z,1006.46
2018-01-04T04:13:13.424Z,1006.55
2018-01-04T04:14:13.706Z,1006.57
2018-01-04T04:15:12.881Z,1006.63
2018-01-04T04:16:12.994Z,1006.66
2018-01-04T04:17:13.220Z,1006.7
2018-01-04T04:18:13.446Z,1006.67
2018-01-04T04:19:12.850Z,1006.72
2018-01-04T04:20:13.164Z,1006.79
2018-01-04T04:21:13.521Z,1006.77
2018-01-04T04:22:12.903Z,1006.77
2018-01-04T04:23:13.154Z,1006.71
2018-01-04T04:24:13.396Z,1006.74
2018-01-04T04:25:13.731Z,1006.77
2018-01-04T04:26:13.050Z,1006.85
2018-01-04T04:27:12.964Z,1006.88
2018-01-04T04:28:13.265Z,1006.92
2018-01-04T04:29:13.565Z,1006.9
2018-01-04T04:30:13.818Z,1006.85
2018-01-04T04:31:13.066Z,1006.88
2018-01-04T04:32:13.371Z,1006.88
2018-01-04T04:33:13.699Z,1006.91
2018-01-04T04:34:12.973Z,1006.94
2018-01-04T04:35:13.231Z,1006.92
2018-01-04T04:36:13.390Z,1006.88
2018-01-04T04:37:13.501Z,1006.9
2018-01-04T04:38:12.697Z,1006.86
2018-01-04T04:39:13.104Z,1006.81
2018-01-04T04:40:13.448Z,1006.84
2018-01-04T04:41:12.830Z,1006.75
2018-01-04T04:42:13.064Z,1006.64
2018-01-04T04:43:13.222Z,1006.68
2018-01-04T04:44:15.139Z,1006.63
2018-01-04T04:45:13.549Z,1006.6
2018-01-04T04:46:13.059Z,1006.56
2018-01-04T04:47:13.424Z,1006.58
2018-01-04T04:48:12.892Z,1006.52
2018-01-04T04:49:14.154Z,1006.5
2018-01-04T04:50:13.533Z,1006.52
2018-01-04T04:51:12.833Z,1006.51
2018-01-04T04:52:13.352Z,1006.54
2018-01-04T04:53:12.708Z,1006.56
2018-01-04T04:54:12.955Z,1006.61
2018-01-04T04:55:13.198Z,1006.54
2018-01-04T04:56:13.390Z,1006.54
2018-01-04T04:57:12.617Z,1006.58
2018-01-04T04:58:12.679Z,1006.46
2018-01-04T04:59:12.872Z,1006.54
2018-01-04T05:00:13.283Z,1006.6
2018-01-04T05:01:12.767Z,1006.61
2018-01-04T05:02:12.998Z,1006.74
2018-01-04T05:03:13.364Z,1006.78
2018-01-04T05:04:13.620Z,1006.81
2018-01-04T05:05:12.860Z,1006.8
2018-01-04T05:06:13.066Z,1006.79
2018-01-04T05:07:13.381Z,1006.75
2018-01-04T05:08:12.582Z,1006.79
2018-01-04T05:09:12.932Z,1006.77
2018-01-04T05:10:13.202Z,1006.72
2018-01-04T05:11:13.433Z,1006.71
2018-01-04T05:12:12.803Z,1006.72
2018-01-04T05:13:13.101Z,1006.75
2018-01-04T05:14:13.432Z,1006.77
2018-01-04T05:15:12.751Z,1006.7
2018-01-04T05:16:13.086Z,1006.71
2018-01-04T05:17:13.525Z,1006.71
2018-01-04T05:18:12.882Z,1006.7
2018-01-04T05:19:13.316Z,1006.71
2018-01-04T05:20:12.813Z,1006.68
2018-01-04T05:21:13.414Z,1006.72
2018-01-04T05:22:12.848Z,1006.65
2018-01-04T05:23:13.325Z,1006.67
2018-01-04T05:24:13.020Z,1006.67
2018-01-04T05:25:13.548Z,1006.65
2018-01-04T05:26:13.148Z,1006.61
2018-01-04T05:27:12.733Z,1006.61
2018-01-04T05:28:13.168Z,1006.58
2018-01-04T05:29:12.532Z,1006.59
2018-01-04T05:30:12.793Z,1006.59
2018-01-04T05:31:13.163Z,1006.55
2018-01-04T05:32:13.515Z,1006.5
2018-01-04T05:33:12.887Z,1006.47
2018-01-04T05:34:13.145Z,1006.5
2018-01-04T05:35:12.833Z,1006.45
2018-01-04T05:36:13.188Z,1006.48
2018-01-04T05:37:13.533Z,1006.4
2018-01-04T05:38:12.805Z,1006.4
2018-01-04T05:39:13.021Z,1006.39
2018-01-04T05:40:13.261Z,1006.41
2018-01-04T05:41:13.473Z,1006.41
2018-01-04T05:42:13.524Z,1006.41
2018-01-04T05:43:13.776Z,1006.4
2018-01-04T05:44:13.156Z,1006.34
2018-01-04T05:45:13.367Z,1006.41
2018-01-04T05:46:12.920Z,1006.48
2018-01-04T05:47:13.278Z,1006.47
2018-01-04T05:48:13.562Z,1006.43
2018-01-04T05:49:12.789Z,1006.41
2018-01-04T05:50:12.989Z,1006.39
2018-01-04T05:51:13.188Z,1006.42
2018-01-04T05:52:13.441Z,1006.48
2018-01-04T05:53:14.380Z,1006.48
2018-01-04T05:54:13.825Z,1006.5
2018-01-04T05:55:12.953Z,1006.52
2018-01-04T05:56:13.669Z,1006.48
2018-01-04T05:57:13.112Z,1006.54
2018-01-04T05:58:13.560Z,1006.51
2018-01-04T05:59:13.023Z,1006.57
2018-01-04T06:00:13.297Z,1006.47
2018-01-04T06:01:13.717Z,1006.54
2018-01-04T06:02:13.042Z,1006.46
2018-01-04T06:03:13.446Z,1006.4
2018-01-04T06:04:13.706Z,1006.38
2018-01-04T06:05:12.991Z,1006.34
2018-01-04T06:06:13.211Z,1006.39
2018-01-04T06:07:13.528Z,1006.49
2018-01-04T06:08:13.957Z,1006.57
2018-01-04T06:09:13.356Z,1006.62
2018-01-04T06:10:13.661Z,1006.57
2018-01-04T06:11:13.914Z,1006.6
2018-01-04T06:12:13.116Z,1006.65
2018-01-04T06:13:13.293Z,1006.65
2018-01-04T06:14:13.653Z,1006.69
2018-01-04T06:15:13.050Z,1006.7
2018-01-04T06:16:13.464Z,1006.68
2018-01-04T06:17:13.839Z,1006.71
2018-01-04T06:18:13.591Z,1006.7
2018-01-04T06:19:13.035Z,1006.78
2018-01-04T06:20:13.404Z,1006.77
2018-01-04T06:21:13.780Z,1006.81
2018-01-04T06:22:13.106Z,1006.8
2018-01-04T06:23:13.558Z,1006.82
2018-01-04T06:24:13.927Z,1006.84
2018-01-04T06:25:13.127Z,1006.78
2018-01-04T06:26:13.364Z,1006.71
2018-01-04T06:27:13.687Z,1006.69
2018-01-04T06:28:13.972Z,1006.65
2018-01-04T06:29:13.654Z,1006.64
2018-01-04T06:30:13.871Z,1006.69
2018-01-04T06:31:13.277Z,1006.65
2018-01-04T06:32:13.472Z,1006.62
2018-01-04T06:33:13.756Z,1006.54
2018-01-04T06:34:12.985Z,1006.51
2018-01-04T06:35:13.275Z,1006.46
2018-01-04T06:36:12.669Z,1006.44
2018-01-04T06:37:13.103Z,1006.44
2018-01-04T06:38:13.605Z,1006.48
2018-01-04T06:39:13.278Z,1006.42
2018-01-04T06:40:12.799Z,1006.41
2018-01-04T06:41:13.167Z,1006.32
2018-01-04T06:42:12.532Z,1006.26
2018-01-04T06:43:12.887Z,1006.26
2018-01-04T06:44:13.128Z,1006.26
2018-01-04T06:45:12.490Z,1006.26
2018-01-04T06:46:12.564Z,1006.31
2018-01-04T06:47:13.416Z,1006.29
2018-01-04T06:48:12.854Z,1006.29
2018-01-04T06:49:12.118Z,1006.27
2018-01-04T06:50:12.397Z,1006.3
2018-01-04T06:51:12.977Z,1006.29
2018-01-04T06:52:12.442Z,1006.27
2018-01-04T06:53:12.929Z,1006.27
2018-01-04T06:54:12.491Z,1006.31
2018-01-04T06:55:13.005Z,1006.32
2018-01-04T06:56:12.412Z,1006.31
2018-01-04T06:57:12.673Z,1006.23
2018-01-04T06:58:13.166Z,1006.26
2018-01-04T06:59:12.499Z,1006.18
2018-01-04T07:00:12.594Z,1006.08
2018-01-04T07:01:13.085Z,1006.09
2018-01-04T07:02:12.778Z,1006.14
2018-01-04T07:03:12.874Z,1006.17
2018-01-04T07:04:13.211Z,1006.15
2018-01-04T07:05:12.720Z,1006.21
2018-01-04T07:06:13.165Z,1006.14
2018-01-04T07:07:12.317Z,1006.22
2018-01-04T07:08:12.517Z,1006.15
2018-01-04T07:09:12.866Z,1006.12
2018-01-04T07:10:12.329Z,1006.14
2018-01-04T07:11:12.845Z,1006.18
2018-01-04T07:12:12.187Z,1006.09
2018-01-04T07:13:12.422Z,1006.07
2018-01-04T07:14:12.698Z,1006.06
2018-01-04T07:15:13.099Z,1006.07
2018-01-04T07:16:12.668Z,1006.02
2018-01-04T07:17:13.206Z,1006.02
2018-01-04T07:18:12.369Z,1006
2018-01-04T07:19:12.582Z,1006.04
2018-01-04T07:20:12.894Z,1005.98
2018-01-04T07:21:12.318Z,1005.99
2018-01-04T07:22:12.660Z,1005.94
2018-01-04T07:23:12.926Z,1005.9
2018-01-04T07:24:12.291Z,1005.9
2018-01-04T07:25:12.549Z,1005.87
2018-01-04T07:26:12.817Z,1005.8
2018-01-04T07:27:13.043Z,1005.84
2018-01-04T07:28:12.365Z,1005.85
2018-01-04T07:29:12.680Z,1005.9
2018-01-04T07:30:13.074Z,1005.91
2018-01-04T07:31:12.548Z,1005.92
2018-01-04T07:32:12.590Z,1005.9
2018-01-04T07:33:12.700Z,1005.85
2018-01-04T07:34:13.003Z,1005.92
2018-01-04T07:35:12.575Z,1005.97
2018-01-04T07:36:12.995Z,1005.94
2018-01-04T07:37:12.223Z,1005.93
2018-01-04T07:38:12.306Z,1005.89
2018-01-04T07:39:12.491Z,1005.99
2018-01-04T07:40:12.685Z,1005.91
2018-01-04T07:41:12.844Z,1005.93
2018-01-04T07:42:12.962Z,1005.91
2018-01-04T07:43:13.113Z,1005.94
2018-01-04T07:44:12.356Z,1005.99
2018-01-04T07:45:12.745Z,1005.98
2018-01-04T07:46:12.240Z,1005.95
2018-01-04T07:47:12.475Z,1005.87
2018-01-04T07:48:12.679Z,1005.82
2018-01-04T07:49:12.884Z,1005.84
2018-01-04T07:50:13.042Z,1005.88
2018-01-04T07:51:12.342Z,1005.8
2018-01-04T07:52:12.608Z,1005.75
2018-01-04T07:53:12.828Z,1005.69
2018-01-04T07:54:12.940Z,1005.68
2018-01-04T07:55:13.023Z,1005.63
2018-01-04T07:56:13.270Z,1005.66
2018-01-04T07:57:12.739Z,1005.55
2018-01-04T07:58:12.879Z,1005.58
2018-01-04T07:59:12.368Z,1005.63
2018-01-04T08:00:12.557Z,1005.61
2018-01-04T08:01:12.785Z,1005.6
2018-01-04T08:02:13.064Z,1005.62
2018-01-04T08:03:12.246Z,1005.59
2018-01-04T08:04:24.969Z,1005.65
2018-01-04T08:05:13.184Z,1005.65
2018-01-04T08:06:12.368Z,1005.67
2018-01-04T08:07:12.705Z,1005.69
2018-01-04T08:08:13.022Z,1005.63
2018-01-04T08:09:13.356Z,1005.67
2018-01-04T08:10:13.592Z,1005.69
2018-01-04T08:11:13.085Z,1005.66
2018-01-04T08:12:13.509Z,1005.69
2018-01-04T08:13:12.985Z,1005.67
2018-01-04T08:14:13.207Z,1005.68
2018-01-04T08:15:13.576Z,1005.67
2018-01-04T08:16:13.085Z,1005.67
2018-01-04T08:17:13.368Z,1005.68
2018-01-04T08:18:13.592Z,1005.68
2018-01-04T08:19:12.887Z,1005.74
2018-01-04T08:20:13.192Z,1005.68
2018-01-04T08:21:13.465Z,1005.71
2018-01-04T08:22:12.915Z,1005.63
2018-01-04T08:23:13.508Z,1005.64
2018-01-04T08:24:12.779Z,1005.61
2018-01-04T08:25:13.340Z,1005.61
2018-01-04T08:26:13.789Z,1005.64
2018-01-04T08:27:13.181Z,1005.65
2018-01-04T08:28:13.534Z,1005.65
2018-01-04T08:29:12.955Z,1005.65
2018-01-04T08:30:13.502Z,1005.64
2018-01-04T08:31:12.892Z,1005.59
2018-01-04T08:32:13.179Z,1005.56
2018-01-04T08:33:13.528Z,1005.56
2018-01-04T08:34:12.818Z,1005.53
2018-01-04T08:35:13.187Z,1005.56
2018-01-04T08:36:13.564Z,1005.5
2018-01-04T08:37:13.114Z,1005.54
2018-01-04T08:38:12.395Z,1005.51
2018-01-04T08:39:12.706Z,1005.53
2018-01-04T08:40:12.958Z,1005.54
2018-01-04T08:41:14.117Z,1005.5
2018-01-04T08:42:12.444Z,1005.52
2018-01-04T08:43:12.655Z,1005.49
2018-01-04T08:44:12.943Z,1005.49
2018-01-04T08:45:13.255Z,1005.53
2018-01-04T08:46:12.494Z,1005.52
2018-01-04T08:47:12.543Z,1005.5
2018-01-04T08:48:12.770Z,1005.52
2018-01-04T08:49:13.122Z,1005.48
2018-01-04T08:50:12.508Z,1005.51
2018-01-04T08:51:12.585Z,1005.49
2018-01-04T08:52:12.866Z,1005.47
2018-01-04T08:53:13.128Z,1005.51
2018-01-04T08:54:12.564Z,1005.51
2018-01-04T08:55:12.938Z,1005.44
2018-01-04T08:56:12.408Z,1005.43
2018-01-04T08:57:12.633Z,1005.44
2018-01-04T08:58:13.053Z,1005.41
2018-01-04T08:59:12.243Z,1005.37
2018-01-04T09:00:12.563Z,1005.39
2018-01-04T09:01:12.867Z,1005.4
2018-01-04T09:02:12.382Z,1005.43
2018-01-04T09:03:12.718Z,1005.43
2018-01-04T09:04:12.940Z,1005.44
2018-01-04T09:05:12.242Z,1005.41
2018-01-04T09:06:12.584Z,1005.4
2018-01-04T09:24:39.980Z,1005.19
2018-01-04T09:25:39.416Z,1005.14
2018-01-04T09:26:39.804Z,1005.13
2018-01-04T09:28:56.524Z,1005.06
2018-01-04T09:29:56.760Z,1005.05
2018-01-04T10:45:29.867Z,1003.28
2018-01-04T10:46:30.322Z,1003.27
2018-01-04T10:47:29.742Z,1003.26
2018-01-04T10:48:30.001Z,1003.26
2018-01-04T10:49:30.191Z,1003.25
2018-01-04T10:50:29.687Z,1003.23
2018-01-04T10:51:29.929Z,1003.26
2018-01-04T10:52:30.185Z,1003.17
2018-01-04T10:53:30.363Z,1003.16
2018-01-04T10:54:30.268Z,1003.18
2018-01-04T10:55:30.469Z,1003.15
2018-01-04T10:56:30.004Z,1003.18
2018-01-04T10:57:30.214Z,1003.14
2018-01-04T10:58:30.514Z,1003.14
2018-01-04T10:59:30.019Z,1003.13
2018-01-04T11:00:30.343Z,1003.06
2018-01-04T11:01:29.709Z,1003.01
2018-01-04T11:02:29.860Z,1003.02
2018-01-04T11:03:30.117Z,1002.98
2018-01-04T11:04:30.279Z,1002.99
2018-01-04T11:05:30.511Z,1002.93
2018-01-04T11:06:29.846Z,1002.87
2018-01-04T11:07:30.365Z,1002.87
2018-01-04T11:08:29.713Z,1002.81
2018-01-04T11:09:30.295Z,1002.78
2018-01-04T11:10:29.645Z,1002.76
2018-01-04T11:11:29.946Z,1002.75
2018-01-04T11:12:30.252Z,1002.71
2018-01-04T11:13:29.673Z,1002.72
2018-01-04T11:14:30.125Z,1002.69
2018-01-04T11:15:30.610Z,1002.66
2018-01-04T11:16:29.994Z,1002.63
2018-01-04T11:17:30.690Z,1002.59
2018-01-04T11:18:30.191Z,1002.56
2018-01-04T11:19:29.653Z,1002.57
2018-01-04T11:20:29.988Z,1002.48
2018-01-04T11:21:30.367Z,1002.47
2018-01-04T11:22:29.900Z,1002.46
2018-01-04T11:23:30.462Z,1002.45
2018-01-04T11:24:30.147Z,1002.47
2018-01-04T11:25:29.894Z,1002.39
2018-01-04T11:26:30.418Z,1002.35
2018-01-04T11:27:29.784Z,1002.3
2018-01-04T11:28:30.336Z,1002.33
2018-01-04T11:29:30.047Z,1002.32
2018-01-04T11:30:31.951Z,1002.22
2018-01-04T11:31:30.430Z,1002.18
2018-01-04T11:32:29.966Z,1002.18
2018-01-04T11:33:30.531Z,1002.19
2018-01-04T11:34:31.118Z,1002.14
2018-01-04T11:35:30.265Z,1002.17
2018-01-04T11:36:29.656Z,1002.16
2018-01-04T11:37:29.974Z,1002.16
2018-01-04T11:38:30.302Z,1002.13
2018-01-04T11:39:29.597Z,1002.07
2018-01-04T11:40:30.079Z,1002.08
2018-01-04T11:41:30.392Z,1002.06
2018-01-04T11:42:29.764Z,1001.98
2018-01-04T11:43:30.394Z,1001.97
2018-01-04T11:44:29.781Z,1001.96
2018-01-04T11:45:30.160Z,1001.95
2018-01-04T11:46:30.487Z,1001.93
2018-01-04T11:47:29.671Z,1001.9
2018-01-04T11:48:29.999Z,1001.88
2018-01-04T11:49:30.118Z,1001.85
2018-01-04T11:50:30.375Z,1001.85
2018-01-04T11:51:29.955Z,1001.86
2018-01-04T11:52:30.244Z,1001.82
2018-01-04T11:53:30.048Z,1001.81
2018-01-04T11:54:30.525Z,1001.74
2018-01-04T11:55:29.745Z,1001.76
2018-01-04T11:56:30.144Z,1001.74
2018-01-04T11:57:30.242Z,1001.66
2018-01-04T11:58:29.647Z,1001.67
2018-01-04T11:59:30.236Z,1001.67
2018-01-04T12:00:30.773Z,1001.66
2018-01-04T12:01:31.215Z,1001.59
2018-01-04T12:02:31.006Z,1001.59
2018-01-04T12:03:31.246Z,1001.59
2018-01-04T12:04:30.831Z,1001.57
2018-01-04T12:05:31.256Z,1001.58
2018-01-04T12:06:31.502Z,1001.57
2018-01-04T12:07:30.847Z,1001.58
2018-01-04T12:08:31.346Z,1001.58
2018-01-04T12:09:30.787Z,1001.5
2018-01-04T12:10:30.972Z,1001.47
2018-01-04T12:11:31.744Z,1001.4
2018-01-04T12:12:31.105Z,1001.47
2018-01-04T12:13:31.579Z,1001.38
2018-01-04T12:14:31.426Z,1001.39
2018-01-04T12:15:31.109Z,1001.39
2018-01-04T12:16:30.358Z,1001.36
2018-01-04T12:17:31.099Z,1001.3
2018-01-04T12:18:31.700Z,1001.29
2018-01-04T12:19:31.244Z,1001.35
2018-01-04T12:20:31.505Z,1001.3
2018-01-04T12:21:30.871Z,1001.24
2018-01-04T12:22:31.198Z,1001.22
2018-01-04T12:23:31.753Z,1001.21
2018-01-04T12:24:30.750Z,1001.13
2018-01-04T12:25:31.571Z,1001.11
2018-01-04T12:26:30.866Z,1001.08
2018-01-04T12:27:30.284Z,1001.06
2018-01-04T12:28:30.763Z,1001.03
2018-01-04T12:29:30.271Z,1001.05
2018-01-04T12:30:30.795Z,1001.08
2018-01-04T12:31:30.134Z,1001.03
2018-01-04T12:32:30.744Z,1000.99
2018-01-04T12:33:30.350Z,1001.03
2018-01-04T12:34:30.725Z,1001
2018-01-04T12:35:30.299Z,1001.01
2018-01-04T12:36:30.735Z,1001.07
2018-01-04T12:37:30.833Z,1001.08
2018-01-04T12:38:30.830Z,1001.04
2018-01-04T12:39:30.663Z,1000.97
2018-01-04T12:40:31.092Z,1000.9
2018-01-04T12:41:30.604Z,1000.83
2018-01-04T12:42:30.347Z,1000.84
2018-01-04T12:43:30.686Z,1000.81
2018-01-04T12:44:30.063Z,1000.77
2018-01-04T12:45:30.512Z,1000.74
2018-01-04T12:46:30.852Z,1000.71
2018-01-04T12:47:30.138Z,1000.74
2018-01-04T12:48:29.386Z,1000.67
2018-01-04T12:49:29.804Z,1000.65
2018-01-04T12:50:29.332Z,1000.57
2018-01-04T12:51:29.736Z,1000.53
2018-01-04T12:52:30.156Z,1000.58
2018-01-04T12:53:29.910Z,1000.51
2018-01-04T12:54:29.431Z,1000.51
2018-01-04T12:55:29.803Z,1000.44
2018-01-04T12:56:30.001Z,1000.34
2018-01-04T12:57:29.577Z,1000.28
2018-01-04T12:58:30.046Z,1000.37
2018-01-04T12:59:29.932Z,1000.37
2018-01-04T13:00:29.240Z,1000.39
2018-01-04T13:01:29.434Z,1000.35
2018-01-04T13:02:29.718Z,1000.41
2018-01-04T13:03:29.417Z,1000.42
2018-01-04T13:04:29.995Z,1000.48
2018-01-04T13:05:31.574Z,1000.42
2018-01-04T13:06:30.055Z,1000.43
2018-01-04T13:07:29.346Z,1000.41
2018-01-04T13:08:29.996Z,1000.36
2018-01-04T13:09:29.450Z,1000.35
2018-01-04T13:10:29.890Z,1000.36
2018-01-04T13:11:30.239Z,1000.36
2018-01-04T13:12:29.793Z,1000.33
2018-01-04T13:13:29.241Z,1000.33
2018-01-04T13:14:30.035Z,1000.35
2018-01-04T13:15:29.396Z,1000.31
2018-01-04T13:16:29.806Z,1000.31
2018-01-04T13:17:30.128Z,1000.31
2018-01-04T13:18:29.844Z,1000.27
2018-01-04T13:19:30.292Z,1000.24
2018-01-04T13:20:30.789Z,1000.24
2018-01-04T13:21:30.170Z,1000.25
2018-01-04T13:22:30.893Z,1000.24
2018-01-04T13:23:30.322Z,1000.24
2018-01-04T13:24:30.165Z,1000.2
2018-01-04T13:25:31.042Z,1000.19
2018-01-04T13:26:30.147Z,1000.2
2018-01-04T13:27:30.402Z,1000.23
2018-01-04T13:28:29.768Z,1000.23
2018-01-04T13:29:30.385Z,1000.16
2018-01-04T13:30:30.842Z,1000.15
2018-01-04T13:31:30.289Z,1000.17
2018-01-04T13:32:30.575Z,1000.09
2018-01-04T13:33:29.824Z,1000.08
2018-01-04T13:34:30.149Z,1000.1
2018-01-04T13:35:30.566Z,1000.06
2018-01-04T13:36:30.283Z,1000.06
2018-01-04T13:37:30.724Z,1000.05
2018-01-04T13:38:30.118Z,1000.03
2018-01-04T13:39:30.551Z,1000.06
2018-01-04T13:40:29.929Z,1000.04
2018-01-04T13:41:30.360Z,999.96